createdAt,value
2017-09-18T00:01:42.174Z,9.57
2017-09-18T00:04:09.632Z,9.70
2017-09-18T00:06:37.097Z,10.87
2017-09-18T00:09:04.747Z,9.13
2017-09-18T00:11:32.208Z,9.60
2017-09-18T00:13:59.664Z,10.23
2017-09-18T00:16:27.143Z,10.50
2017-09-18T00:18:54.991Z,9.50
2017-09-18T00:21:22.848Z,8.83
2017-09-18T00:23:50.739Z,9.30
2017-09-18T00:26:18.599Z,9.67
2017-09-18T00:28:46.450Z,9.20
2017-09-18T00:31:14.298Z,9.60
2017-09-18T00:33:41.755Z,9.87
2017-09-18T00:36:09.211Z,10.10
2017-09-18T00:38:36.686Z,10.23
2017-09-18T00:41:04.147Z,10.03
2017-09-18T00:43:32.007Z,10.10
2017-09-18T00:45:59.895Z,9.80
2017-09-18T00:48:27.356Z,9.30
2017-09-18T00:50:54.810Z,9.63
2017-09-18T00:53:22.270Z,9.20
2017-09-18T00:55:49.724Z,9.93
2017-09-18T00:58:17.356Z,10.07
2017-09-18T01:00:45.204Z,9.80
2017-09-18T01:03:12.662Z,9.10
2017-09-18T01:05:40.173Z,10.27
2017-09-18T01:08:07.622Z,9.53
2017-09-18T01:10:35.078Z,8.60
2017-09-18T01:13:02.571Z,10.30
2017-09-18T01:15:30.442Z,9.50
2017-09-18T01:17:57.910Z,9.80
2017-09-18T01:20:25.969Z,10.97
2017-09-18T01:22:53.426Z,10.60
2017-09-18T01:25:20.876Z,9.63
2017-09-18T01:27:48.362Z,10.37
2017-09-18T01:30:16.207Z,9.80
2017-09-18T01:32:44.067Z,10.10
2017-09-18T01:35:11.549Z,10.47
2017-09-18T01:37:39.003Z,9.93
2017-09-18T01:40:06.851Z,9.53
2017-09-18T01:42:34.979Z,11.10
2017-09-18T01:45:02.422Z,10.13
2017-09-18T01:47:29.878Z,10.73
2017-09-18T01:49:57.371Z,11.97
2017-09-18T01:52:24.834Z,13.43
2017-09-18T01:54:52.290Z,27.50
2017-09-18T01:57:19.806Z,24.70
2017-09-18T01:59:47.264Z,13.20
2017-09-18T02:02:14.716Z,10.23
2017-09-18T02:04:42.403Z,10.70
2017-09-18T02:07:09.863Z,10.43
2017-09-18T02:09:37.336Z,10.43
2017-09-18T02:12:05.203Z,9.57
2017-09-18T02:14:33.062Z,10.40
2017-09-18T02:17:00.524Z,10.23
2017-09-18T02:19:28.412Z,10.00
2017-09-18T02:21:55.860Z,10.77
2017-09-18T02:24:23.702Z,10.17
2017-09-18T02:26:52.430Z,10.73
2017-09-18T02:29:19.894Z,10.50
2017-09-18T02:31:47.347Z,10.37
2017-09-18T02:34:14.823Z,10.27
2017-09-18T02:36:42.283Z,10.20
2017-09-18T02:39:09.739Z,10.50
2017-09-18T02:41:37.489Z,15.30
2017-09-18T02:44:04.951Z,25.43
2017-09-18T02:46:32.411Z,38.00
2017-09-18T02:49:15.123Z,38.40
2017-09-18T02:51:42.583Z,44.13
2017-09-18T02:54:10.045Z,88.60
2017-09-18T02:56:37.542Z,22.40
2017-09-18T02:59:05.005Z,12.67
2017-09-18T03:01:32.465Z,16.00
2017-09-18T03:03:59.962Z,12.00
2017-09-18T03:06:27.417Z,13.80
2017-09-18T03:08:54.874Z,13.10
2017-09-18T03:11:22.348Z,12.77
2017-09-18T03:13:49.793Z,11.07
2017-09-18T03:16:17.246Z,11.93
2017-09-18T03:18:44.744Z,11.00
2017-09-18T03:21:12.195Z,12.07
2017-09-18T03:23:39.654Z,12.00
2017-09-18T03:26:07.142Z,11.90
2017-09-18T03:28:34.607Z,11.30
2017-09-18T03:31:02.060Z,11.13
2017-09-18T03:33:29.622Z,11.13
2017-09-18T03:35:57.082Z,10.80
2017-09-18T03:38:24.539Z,10.90
2017-09-18T03:40:52.198Z,11.43
2017-09-18T03:43:19.659Z,13.70
2017-09-18T03:45:47.122Z,15.53
2017-09-18T03:48:14.870Z,12.60
2017-09-18T03:50:42.319Z,11.07
2017-09-18T03:53:09.773Z,11.33
2017-09-18T03:55:37.542Z,13.00
2017-09-18T03:58:04.995Z,13.93
2017-09-18T04:00:32.450Z,11.60
2017-09-18T04:02:59.918Z,11.10
2017-09-18T04:05:27.374Z,11.77
2017-09-18T04:07:54.826Z,14.10
2017-09-18T04:10:22.313Z,14.80
2017-09-18T04:12:49.769Z,14.27
2017-09-18T04:15:17.233Z,16.97
2017-09-18T04:17:45.048Z,16.70
2017-09-18T04:20:12.507Z,16.20
2017-09-18T04:22:39.962Z,16.07
2017-09-18T04:25:07.550Z,16.97
2017-09-18T04:27:35.411Z,17.33
2017-09-18T04:30:03.266Z,15.57
2017-09-18T04:32:31.154Z,16.10
2017-09-18T04:34:58.610Z,15.87
2017-09-18T04:37:26.058Z,16.40
2017-09-18T04:39:53.906Z,15.90
2017-09-18T04:42:21.757Z,16.27
2017-09-18T04:44:49.337Z,16.03
2017-09-18T04:47:17.187Z,17.17
2017-09-18T04:49:44.647Z,16.37
2017-09-18T04:52:12.494Z,14.27
2017-09-18T04:54:39.979Z,15.50
2017-09-18T04:57:07.826Z,16.27
2017-09-18T04:59:36.514Z,12.90
2017-09-18T05:02:05.214Z,13.40
2017-09-18T05:04:33.066Z,14.43
2017-09-18T05:07:00.913Z,15.27
2017-09-18T05:09:28.391Z,15.87
2017-09-18T05:11:56.253Z,20.40
2017-09-18T05:14:24.099Z,18.93
2017-09-18T05:16:51.695Z,17.97
2017-09-18T05:19:19.147Z,17.40
2017-09-18T05:21:46.906Z,17.43
2017-09-18T05:24:14.406Z,19.07
2017-09-18T05:26:41.862Z,16.70
2017-09-18T05:29:09.314Z,18.20
2017-09-18T05:31:36.770Z,16.67
2017-09-18T05:34:04.238Z,17.10
2017-09-18T05:36:31.907Z,16.70
2017-09-18T05:38:59.366Z,15.70
2017-09-18T05:41:27.229Z,17.27
2017-09-18T05:43:54.703Z,19.10
2017-09-18T05:46:22.550Z,15.27
2017-09-18T05:48:50.010Z,17.33
2017-09-18T05:51:17.506Z,16.00
2017-09-18T05:53:44.962Z,15.27
2017-09-18T05:56:12.432Z,16.93
2017-09-18T05:58:40.015Z,16.50
2017-09-18T06:01:07.471Z,17.63
2017-09-18T06:03:34.939Z,16.93
2017-09-18T06:06:02.725Z,16.40
2017-09-18T06:08:30.566Z,16.33
2017-09-18T06:10:58.023Z,16.60
2017-09-18T06:13:25.946Z,16.13
2017-09-18T06:15:53.404Z,17.50
2017-09-18T06:18:20.931Z,16.70
2017-09-18T06:20:48.800Z,16.10
2017-09-18T06:23:16.264Z,14.30
2017-09-18T06:25:43.726Z,15.80
2017-09-18T06:28:11.185Z,15.10
2017-09-18T06:30:38.640Z,14.83
2017-09-18T06:33:06.206Z,14.93
2017-09-18T06:35:33.661Z,15.20
2017-09-18T06:38:01.123Z,14.70
2017-09-18T06:40:28.614Z,14.57
2017-09-18T06:42:56.061Z,15.93
2017-09-18T06:45:23.522Z,15.03
2017-09-18T06:47:50.982Z,19.07
2017-09-18T06:50:18.443Z,17.47
2017-09-18T06:52:45.928Z,15.47
2017-09-18T06:55:13.383Z,15.57
2017-09-18T06:57:40.829Z,13.57
2017-09-18T07:00:08.292Z,14.90
2017-09-18T07:02:35.738Z,14.70
2017-09-18T07:05:03.711Z,14.20
2017-09-18T07:07:31.185Z,14.60
2017-09-18T07:09:58.774Z,55.27
2017-09-18T07:12:26.226Z,29.13
2017-09-18T07:14:53.897Z,19.70
2017-09-18T07:17:21.350Z,17.13
2017-09-18T07:19:48.802Z,15.50
2017-09-18T07:22:16.266Z,17.93
2017-09-18T07:24:43.923Z,15.40
2017-09-18T07:27:11.378Z,14.83
2017-09-18T07:29:38.838Z,15.30
2017-09-18T07:32:06.322Z,19.93
2017-09-18T07:34:34.171Z,16.10
2017-09-18T07:37:01.617Z,22.20
2017-09-18T07:39:29.101Z,48.27
2017-09-18T07:41:56.988Z,24.03
2017-09-18T07:44:24.429Z,13.30
2017-09-18T07:46:52.162Z,9.77
2017-09-18T07:49:19.610Z,8.90
2017-09-18T07:51:47.070Z,20.53
2017-09-18T07:54:14.550Z,15.93
2017-09-18T07:56:42.006Z,8.77
2017-09-18T07:59:09.467Z,26.53
2017-09-18T08:01:37.035Z,50.83
2017-09-18T08:04:04.498Z,21.37
2017-09-18T08:06:31.954Z,11.27
2017-09-18T08:08:59.418Z,7.83
2017-09-18T08:11:26.870Z,6.10
2017-09-18T08:13:54.318Z,6.80
2017-09-18T08:16:22.110Z,5.67
2017-09-18T08:18:49.557Z,4.83
2017-09-18T08:21:17.010Z,6.10
2017-09-18T08:23:44.482Z,6.30
2017-09-18T08:26:11.927Z,5.37
2017-09-18T08:28:39.374Z,5.63
2017-09-18T08:31:06.850Z,4.47
2017-09-18T08:33:34.441Z,4.60
2017-09-18T08:36:02.287Z,4.60
2017-09-18T08:38:29.758Z,5.30
2017-09-18T08:40:57.613Z,4.73
2017-09-18T08:43:25.454Z,4.97
2017-09-18T08:45:53.035Z,4.87
2017-09-18T08:48:20.878Z,5.00
2017-09-18T08:50:48.322Z,4.60
2017-09-18T08:53:15.812Z,5.40
2017-09-18T08:55:43.659Z,4.67
2017-09-18T08:58:11.110Z,3.77
2017-09-18T09:00:38.562Z,4.10
2017-09-18T09:03:06.016Z,4.40
2017-09-18T09:05:33.490Z,4.67
2017-09-18T09:08:01.342Z,5.00
2017-09-18T09:10:28.794Z,4.67
2017-09-18T09:12:56.563Z,4.60
2017-09-18T09:15:24.007Z,4.93
2017-09-18T09:17:51.461Z,4.53
2017-09-18T09:20:19.038Z,5.00
2017-09-18T09:22:46.882Z,5.17
2017-09-18T09:25:14.334Z,4.07
2017-09-18T09:27:42.098Z,3.60
2017-09-18T09:30:09.542Z,6.57
2017-09-18T09:32:36.999Z,4.57
2017-09-18T09:35:04.620Z,5.37
2017-09-18T09:37:32.087Z,4.03
2017-09-18T09:39:59.521Z,4.67
2017-09-18T09:42:27.279Z,5.00
2017-09-18T09:44:55.130Z,6.13
2017-09-18T09:47:22.574Z,3.77
2017-09-18T09:49:50.061Z,4.90
2017-09-18T09:52:17.523Z,4.70
2017-09-18T09:54:44.962Z,4.63
2017-09-18T09:57:13.198Z,4.30
2017-09-18T09:59:40.650Z,4.63
2017-09-18T10:02:08.102Z,4.77
2017-09-18T10:04:35.874Z,5.80
2017-09-18T10:07:03.347Z,5.20
2017-09-18T10:09:30.802Z,4.43
2017-09-18T10:11:58.955Z,4.80
2017-09-18T10:14:26.399Z,4.67
2017-09-18T10:16:53.849Z,14.07
2017-09-18T10:19:21.304Z,17.20
2017-09-18T10:21:48.771Z,5.07
2017-09-18T10:24:16.335Z,4.73
2017-09-18T10:26:43.790Z,4.80
2017-09-18T10:29:11.247Z,5.40
2017-09-18T10:31:38.715Z,7.07
2017-09-18T10:34:06.166Z,5.33
2017-09-18T10:36:33.850Z,4.20
2017-09-18T10:39:01.707Z,5.13
2017-09-18T10:41:29.555Z,8.17
2017-09-18T10:43:57.007Z,6.63
2017-09-18T10:46:24.482Z,4.90
2017-09-18T10:48:52.322Z,4.93
2017-09-18T10:51:19.778Z,4.03
2017-09-18T10:53:47.552Z,7.57
2017-09-18T10:56:15.004Z,6.17
2017-09-18T10:58:42.442Z,6.30
2017-09-18T11:01:09.938Z,5.77
2017-09-18T11:03:37.781Z,6.00
2017-09-18T11:06:05.235Z,7.30
2017-09-18T11:08:33.102Z,8.90
2017-09-18T11:11:00.551Z,6.67
2017-09-18T11:13:28.001Z,7.93
2017-09-18T11:15:55.462Z,7.57
2017-09-18T11:18:22.910Z,6.93
2017-09-18T11:20:50.356Z,6.33
2017-09-18T11:23:17.814Z,6.43
2017-09-18T11:25:45.273Z,7.70
2017-09-18T11:28:12.758Z,7.43
2017-09-18T11:30:40.598Z,9.90
2017-09-18T11:33:09.448Z,5.53
2017-09-18T11:35:37.133Z,5.47
2017-09-18T11:38:05.483Z,6.63
2017-09-18T11:40:32.931Z,5.90
2017-09-18T11:43:00.389Z,5.43
2017-09-18T11:45:27.874Z,4.43
2017-09-18T11:47:55.326Z,4.80
2017-09-18T11:50:22.786Z,3.87
2017-09-18T11:52:50.229Z,3.97
2017-09-18T11:55:17.678Z,5.13
2017-09-18T11:57:45.280Z,4.37
2017-09-18T12:00:12.725Z,5.30
2017-09-18T12:02:40.166Z,4.83
2017-09-18T12:05:07.724Z,6.27
2017-09-18T12:07:35.170Z,5.80
2017-09-18T12:10:02.614Z,5.53
2017-09-18T12:12:30.093Z,5.53
2017-09-18T12:14:57.542Z,5.67
2017-09-18T12:17:24.993Z,7.37
2017-09-18T12:19:52.465Z,6.77
2017-09-18T12:22:19.917Z,5.53
2017-09-18T12:24:47.365Z,5.23
2017-09-18T12:27:15.022Z,7.60
2017-09-18T12:29:42.466Z,6.63
2017-09-18T12:32:09.918Z,6.03
2017-09-18T12:34:37.391Z,6.07
2017-09-18T12:37:04.841Z,5.97
2017-09-18T12:39:32.286Z,5.77
2017-09-18T12:42:00.059Z,7.20
2017-09-18T12:44:27.509Z,5.20
2017-09-18T12:46:54.966Z,6.77
2017-09-18T12:49:22.410Z,5.20
2017-09-18T12:51:49.850Z,6.30
2017-09-18T12:54:17.322Z,5.53
2017-09-18T12:56:44.765Z,5.90
2017-09-18T12:59:12.214Z,5.60
2017-09-18T13:01:39.684Z,6.30
2017-09-18T13:04:07.130Z,6.50
2017-09-18T13:06:34.574Z,6.03
2017-09-18T13:09:02.066Z,8.10
2017-09-18T13:11:29.509Z,6.87
2017-09-18T13:13:56.958Z,6.27
2017-09-18T13:16:24.449Z,6.80
2017-09-18T13:18:51.893Z,6.70
2017-09-18T13:21:19.347Z,6.23
2017-09-18T13:23:46.816Z,6.30
2017-09-18T13:26:14.253Z,7.00
2017-09-18T13:28:41.706Z,9.53
2017-09-18T13:31:09.195Z,8.90
2017-09-18T13:33:37.034Z,9.43
2017-09-18T13:36:04.486Z,9.23
2017-09-18T13:38:31.964Z,7.87
2017-09-18T13:40:59.410Z,6.63
2017-09-18T13:43:26.850Z,6.60
2017-09-18T13:45:54.325Z,7.27
2017-09-18T13:48:22.169Z,6.10
2017-09-18T13:50:49.619Z,6.40
2017-09-18T13:53:17.067Z,5.73
2017-09-18T13:55:44.513Z,7.07
2017-09-18T13:58:12.250Z,7.30
2017-09-18T14:00:39.721Z,5.90
2017-09-18T14:03:07.174Z,6.37
2017-09-18T14:05:34.968Z,5.93
2017-09-18T14:08:02.410Z,5.20
2017-09-18T14:10:29.861Z,6.97
2017-09-18T14:12:57.421Z,6.33
2017-09-18T14:15:24.870Z,6.00
2017-09-18T14:17:52.315Z,7.47
2017-09-18T14:20:19.804Z,13.67
2017-09-18T14:22:47.262Z,9.07
2017-09-18T14:25:14.704Z,7.67
2017-09-18T14:27:42.153Z,8.30
2017-09-18T14:30:09.619Z,8.23
2017-09-18T14:32:37.093Z,8.13
2017-09-18T14:35:04.541Z,7.37
2017-09-18T14:37:31.981Z,7.20
2017-09-18T14:39:59.477Z,8.90
2017-09-18T14:42:27.321Z,6.77
2017-09-18T14:44:54.770Z,6.83
2017-09-18T14:47:22.237Z,6.17
2017-09-18T14:49:49.686Z,8.07
2017-09-18T14:52:17.137Z,6.67
2017-09-18T14:54:44.593Z,6.93
2017-09-18T14:57:12.041Z,4.90
2017-09-18T14:59:39.492Z,4.17
2017-09-18T15:02:07.153Z,6.00
2017-09-18T15:04:34.602Z,4.13
2017-09-18T15:07:02.058Z,4.37
2017-09-18T15:09:29.728Z,4.40
2017-09-18T15:11:57.202Z,4.40
2017-09-18T15:14:24.646Z,5.00
2017-09-18T15:16:52.117Z,5.30
2017-09-18T15:19:19.954Z,8.70
2017-09-18T15:21:47.410Z,6.90
2017-09-18T15:24:14.862Z,6.07
2017-09-18T15:26:42.326Z,5.73
2017-09-18T15:29:09.778Z,6.20
2017-09-18T15:31:37.218Z,6.23
2017-09-18T15:34:04.678Z,6.50
2017-09-18T15:36:32.465Z,8.10
2017-09-18T15:39:00.408Z,6.17
2017-09-18T15:41:28.015Z,6.40
2017-09-18T15:43:55.627Z,6.10
2017-09-18T15:46:23.070Z,7.00
2017-09-18T15:48:50.890Z,6.47
2017-09-18T15:51:18.740Z,6.23
2017-09-18T15:53:46.332Z,6.60
2017-09-18T15:56:13.970Z,6.83
2017-09-18T15:58:41.422Z,7.13
2017-09-18T16:01:09.610Z,6.80
2017-09-18T16:03:37.098Z,7.70
2017-09-18T16:06:04.572Z,8.40
2017-09-18T16:08:32.087Z,7.60
2017-09-18T16:10:59.569Z,8.17
2017-09-18T16:13:27.018Z,7.60
2017-09-18T16:15:54.498Z,8.00
2017-09-18T16:18:22.229Z,11.70
2017-09-18T16:20:49.910Z,12.83
2017-09-18T16:23:17.361Z,9.83
2017-09-18T16:25:44.864Z,10.37
2017-09-18T16:28:12.713Z,9.10
2017-09-18T16:30:40.169Z,8.77
2017-09-18T16:33:07.666Z,8.13
2017-09-18T16:35:35.120Z,7.50
2017-09-18T16:38:02.566Z,8.60
2017-09-18T16:40:30.010Z,8.03
2017-09-18T16:42:57.461Z,9.03
2017-09-18T16:45:25.115Z,8.60
2017-09-18T16:47:53.350Z,10.67
2017-09-18T16:50:20.817Z,10.30
2017-09-18T16:52:48.278Z,8.73
2017-09-18T16:55:15.729Z,9.73
2017-09-18T16:57:43.178Z,9.30
2017-09-18T17:00:11.074Z,10.97
2017-09-18T17:02:38.912Z,11.13
2017-09-18T17:05:06.371Z,13.03
2017-09-18T17:07:33.855Z,29.07
2017-09-18T17:10:01.310Z,21.60
2017-09-18T17:12:28.764Z,15.63
2017-09-18T17:14:56.246Z,14.43
2017-09-18T17:17:23.701Z,16.00
2017-09-18T17:19:51.193Z,15.13
2017-09-18T17:22:18.698Z,14.93
2017-09-18T17:24:46.153Z,16.27
2017-09-18T17:27:13.605Z,17.40
2017-09-18T17:29:41.083Z,17.07
2017-09-18T17:32:08.530Z,17.27
2017-09-18T17:34:35.986Z,14.73
2017-09-18T17:37:03.501Z,15.53
2017-09-18T17:39:31.359Z,15.70
2017-09-18T17:41:58.819Z,16.47
2017-09-18T17:44:26.281Z,17.50
2017-09-18T17:46:53.943Z,16.00
2017-09-18T17:49:21.793Z,14.30
2017-09-18T17:51:49.252Z,14.03
2017-09-18T17:54:17.141Z,24.20
2017-09-18T17:56:44.977Z,21.87
2017-09-18T17:59:14.411Z,18.97
2017-09-18T18:01:41.887Z,15.97
2017-09-18T18:04:09.458Z,17.50
2017-09-18T18:06:36.914Z,18.43
2017-09-18T18:09:04.419Z,19.07
2017-09-18T18:11:32.259Z,16.23
2017-09-18T18:13:59.710Z,18.63
2017-09-18T18:16:27.178Z,19.00
2017-09-18T18:18:55.037Z,19.40
2017-09-18T18:21:22.530Z,20.27
2017-09-18T18:23:49.985Z,20.63
2017-09-18T18:26:17.441Z,18.70
2017-09-18T18:28:44.914Z,20.50
2017-09-18T18:31:12.369Z,17.40
2017-09-18T18:33:39.834Z,18.80
2017-09-18T18:36:07.324Z,17.70
2017-09-18T18:38:34.785Z,19.43
2017-09-18T18:41:02.651Z,19.40
2017-09-18T18:43:30.178Z,20.57
2017-09-18T18:45:57.672Z,19.63
2017-09-18T18:48:25.544Z,17.80
2017-09-18T18:50:53.442Z,18.50
2017-09-18T18:53:20.901Z,20.97
2017-09-18T18:55:48.360Z,19.33
2017-09-18T18:58:15.863Z,19.73
2017-09-18T19:00:43.773Z,23.20
2017-09-18T19:03:11.262Z,23.07
2017-09-18T19:05:39.059Z,21.70
2017-09-18T19:08:06.954Z,23.83
2017-09-18T19:10:34.436Z,24.23
2017-09-18T19:13:02.116Z,22.20
2017-09-18T19:15:29.640Z,20.87
2017-09-18T19:17:57.103Z,25.00
2017-09-18T19:20:24.625Z,23.90
2017-09-18T19:22:52.099Z,24.33
2017-09-18T19:25:19.595Z,21.80
2017-09-18T19:27:47.085Z,27.07
2017-09-18T19:30:14.964Z,23.47
2017-09-18T19:32:42.472Z,23.50
2017-09-18T19:35:10.397Z,23.20
2017-09-18T19:37:37.911Z,23.07
2017-09-18T19:40:05.388Z,23.73
2017-09-18T19:42:33.229Z,23.57
2017-09-18T19:45:01.094Z,21.57
2017-09-18T19:47:28.942Z,23.07
2017-09-18T19:49:56.402Z,23.57
2017-09-18T19:52:24.158Z,21.93
2017-09-18T19:54:51.617Z,23.50
2017-09-18T19:57:19.071Z,23.60
2017-09-18T19:59:46.554Z,24.23
2017-09-18T20:02:14.405Z,24.03
2017-09-18T20:04:41.857Z,27.43
2017-09-18T20:07:09.314Z,27.53
2017-09-18T20:09:36.774Z,28.83
2017-09-18T20:12:04.893Z,25.90
2017-09-18T20:14:32.466Z,26.10
2017-09-18T20:16:59.922Z,23.20
2017-09-18T20:19:27.377Z,23.40
2017-09-18T20:21:55.097Z,33.03
2017-09-18T20:24:22.557Z,59.50
2017-09-18T20:26:50.011Z,30.97
2017-09-18T20:29:17.479Z,28.20
2017-09-18T20:31:44.940Z,21.00
2017-09-18T20:34:12.445Z,35.77
2017-09-18T20:36:39.902Z,35.60
2017-09-18T20:39:07.356Z,24.70
2017-09-18T20:41:35.253Z,22.37
2017-09-18T20:44:03.920Z,19.27
2017-09-18T20:46:31.814Z,20.33
2017-09-18T20:48:59.387Z,19.47
2017-09-18T20:51:26.855Z,20.60
2017-09-18T20:53:54.337Z,21.60
2017-09-18T20:56:22.086Z,23.53
2017-09-18T20:58:49.549Z,20.57
2017-09-18T21:01:17.014Z,22.30
2017-09-18T21:03:44.482Z,23.20
2017-09-18T21:06:12.343Z,21.30
2017-09-18T21:08:40.201Z,21.50
2017-09-18T21:11:08.082Z,19.17
2017-09-18T21:13:36.039Z,18.90
2017-09-18T21:16:03.898Z,19.77
2017-09-18T21:18:31.786Z,19.03
2017-09-18T21:20:59.245Z,19.60
2017-09-18T21:23:26.689Z,20.57
2017-09-18T21:25:54.254Z,20.63
2017-09-18T21:28:21.705Z,19.10
2017-09-18T21:30:49.165Z,20.07
2017-09-18T21:33:16.889Z,19.33
2017-09-18T21:35:44.753Z,19.77
2017-09-18T21:38:12.213Z,20.77
2017-09-18T21:40:39.682Z,20.77
2017-09-18T21:43:07.530Z,21.13
2017-09-18T21:45:34.985Z,21.03
2017-09-18T21:48:02.461Z,21.73
2017-09-18T21:50:30.314Z,22.43
2017-09-18T21:52:58.163Z,22.60
2017-09-18T21:55:25.622Z,21.27
2017-09-18T21:57:53.090Z,20.50
2017-09-18T22:00:20.941Z,22.07
2017-09-18T22:02:48.398Z,20.77
2017-09-18T22:05:15.853Z,18.67
2017-09-18T22:07:43.318Z,19.67
2017-09-18T22:10:11.165Z,20.27
2017-09-18T22:12:38.622Z,20.17
2017-09-18T22:15:06.101Z,20.07
2017-09-18T22:17:33.955Z,18.73
2017-09-18T22:20:01.419Z,19.30
2017-09-18T22:22:29.160Z,19.00
2017-09-18T22:24:56.611Z,20.37
2017-09-18T22:27:24.073Z,19.93
2017-09-18T22:29:51.961Z,19.87
2017-09-18T22:32:19.814Z,20.33
2017-09-18T22:34:47.664Z,20.50
2017-09-18T22:37:15.138Z,20.77
2017-09-18T22:39:42.985Z,20.63
2017-09-18T22:42:10.434Z,22.10
2017-09-18T22:44:37.901Z,20.80
2017-09-18T22:47:05.353Z,22.17
2017-09-18T22:49:32.809Z,22.23
2017-09-18T22:52:00.565Z,25.27
2017-09-18T22:54:28.017Z,20.60
2017-09-18T22:56:55.474Z,20.27
2017-09-18T22:59:23.210Z,20.40
2017-09-18T23:01:50.665Z,21.50
2017-09-18T23:04:18.133Z,21.97
2017-09-18T23:06:45.626Z,21.73
2017-09-18T23:09:13.481Z,22.57
2017-09-18T23:11:41.342Z,25.87
2017-09-18T23:14:09.238Z,28.10
2017-09-18T23:16:36.690Z,23.57
2017-09-18T23:19:04.169Z,22.07
2017-09-18T23:21:31.627Z,22.10
2017-09-18T23:23:59.078Z,32.90
2017-09-18T23:26:26.564Z,30.73
2017-09-18T23:28:54.017Z,21.90
2017-09-18T23:31:21.473Z,19.80
2017-09-18T23:33:48.950Z,21.80
2017-09-18T23:36:16.409Z,18.20
2017-09-18T23:38:43.858Z,18.90
2017-09-18T23:41:11.343Z,17.90
2017-09-18T23:43:39.184Z,38.47
2017-09-18T23:46:07.034Z,36.07
2017-09-18T23:48:34.487Z,23.33
2017-09-18T23:51:01.951Z,17.27
2017-09-18T23:53:29.441Z,17.57
2017-09-18T23:55:56.899Z,17.10
2017-09-18T23:58:24.353Z,16.27
